Dover, Oregon
Current Conditions -  °F | °C
As of 6:53 AM on Thursday 30 Oct 2014 (Local Time) from KTTD Reporting Station
Overcast Overcast  
Wind Chill: 59°   Ceiling: 5000
Heat Index: 59°   Visibility: 10mi
Dew Point: 52°   Wind: 17mph
Humidity: 78%   Direction: 80°E
Pressure: 29.89"   Gusts: 28mph
Location:  45.3467°N, 122.335°W
Report Text: KTTD 301353Z 08015G24KT 10SM BKN050 OVC100 15/11 A2989 RMK AO2 RAE35 SLP123 P0000 T01500111
Loading
Personal Weather Stations






























Interactive Weather Map
Tropical Storm Tracking
New forecast layout! Learn more

10-Day Weather Forecast

Advertisements
Track Severe Weather on mobile